sensor_id;sensor_type;location;lat;lon;timestamp;P1;durP1;ratioP1;P2;durP2;ratioP2
18503;SDS011;9381;54.244;10.074;2022-11-11T00:00:27;13.32;;;5.20;;
18503;SDS011;9381;54.244;10.074;2022-11-11T00:05:28;12.33;;;5.43;;
18503;SDS011;9381;54.244;10.074;2022-11-11T00:10:29;13.20;;;5.03;;
18503;SDS011;9381;54.244;10.074;2022-11-11T00:15:29;12.70;;;4.63;;
18503;SDS011;9381;54.244;10.074;2022-11-11T00:20:30;11.77;;;5.47;;
18503;SDS011;9381;54.244;10.074;2022-11-11T00:25:52;10.63;;;5.10;;
18503;SDS011;9381;54.244;10.074;2022-11-11T00:30:59;10.77;;;4.87;;
18503;SDS011;9381;54.244;10.074;2022-11-11T00:36:01;10.50;;;4.60;;
18503;SDS011;9381;54.244;10.074;2022-11-11T00:41:01;10.37;;;4.83;;
18503;SDS011;9381;54.244;10.074;2022-11-11T00:46:02;12.20;;;4.93;;
18503;SDS011;9381;54.244;10.074;2022-11-11T00:51:21;15.37;;;5.20;;
18503;SDS011;9381;54.244;10.074;2022-11-11T00:56:22;11.52;;;5.07;;
18503;SDS011;9381;54.244;10.074;2022-11-11T01:01:22;15.20;;;5.37;;
18503;SDS011;9381;54.244;10.074;2022-11-11T01:06:23;10.23;;;4.38;;
18503;SDS011;9381;54.244;10.074;2022-11-11T01:11:23;14.70;;;5.00;;
18503;SDS011;9381;54.244;10.074;2022-11-11T01:16:25;11.10;;;4.20;;
18503;SDS011;9381;54.244;10.074;2022-11-11T01:21:25;10.70;;;4.43;;
18503;SDS011;9381;54.244;10.074;2022-11-11T01:26:26;11.35;;;5.07;;
18503;SDS011;9381;54.244;10.074;2022-11-11T01:31:27;16.37;;;4.87;;
18503;SDS011;9381;54.244;10.074;2022-11-11T01:36:27;12.60;;;4.40;;
18503;SDS011;9381;54.244;10.074;2022-11-11T01:41:30;13.50;;;4.90;;
18503;SDS011;9381;54.244;10.074;2022-11-11T01:46:36;11.83;;;5.17;;
18503;SDS011;9381;54.244;10.074;2022-11-11T01:56:57;19.07;;;5.50;;
18503;SDS011;9381;54.244;10.074;2022-11-11T02:02:02;15.57;;;5.27;;
18503;SDS011;9381;54.244;10.074;2022-11-11T02:07:08;13.07;;;4.50;;
18503;SDS011;9381;54.244;10.074;2022-11-11T02:12:09;14.10;;;4.53;;
18503;SDS011;9381;54.244;10.074;2022-11-11T02:17:30;15.90;;;5.27;;
18503;SDS011;9381;54.244;10.074;2022-11-11T02:22:46;19.60;;;5.47;;
18503;SDS011;9381;54.244;10.074;2022-11-11T02:27:48;15.77;;;5.53;;
18503;SDS011;9381;54.244;10.074;2022-11-11T02:32:51;11.97;;;5.83;;
18503;SDS011;9381;54.244;10.074;2022-11-11T02:37:52;14.00;;;4.93;;
18503;SDS011;9381;54.244;10.074;2022-11-11T02:42:53;17.30;;;5.87;;
18503;SDS011;9381;54.244;10.074;2022-11-11T02:47:53;21.05;;;6.60;;
18503;SDS011;9381;54.244;10.074;2022-11-11T02:52:53;17.92;;;5.68;;
18503;SDS011;9381;54.244;10.074;2022-11-11T02:57:54;11.52;;;5.47;;
18503;SDS011;9381;54.244;10.074;2022-11-11T03:02:54;17.13;;;6.68;;
18503;SDS011;9381;54.244;10.074;2022-11-11T03:07:54;12.73;;;5.60;;
18503;SDS011;9381;54.244;10.074;2022-11-11T03:12:55;14.38;;;5.40;;
18503;SDS011;9381;54.244;10.074;2022-11-11T03:17:55;13.20;;;5.40;;
18503;SDS011;9381;54.244;10.074;2022-11-11T03:23:02;16.00;;;6.57;;
18503;SDS011;9381;54.244;10.074;2022-11-11T03:28:08;18.37;;;6.60;;
18503;SDS011;9381;54.244;10.074;2022-11-11T03:33:11;17.57;;;6.63;;
18503;SDS011;9381;54.244;10.074;2022-11-11T03:38:12;18.60;;;7.47;;
18503;SDS011;9381;54.244;10.074;2022-11-11T03:43:24;17.97;;;6.60;;
18503;SDS011;9381;54.244;10.074;2022-11-11T03:48:26;15.90;;;6.47;;
18503;SDS011;9381;54.244;10.074;2022-11-11T03:53:28;17.10;;;7.27;;
18503;SDS011;9381;54.244;10.074;2022-11-11T03:58:28;15.83;;;6.93;;
18503;SDS011;9381;54.244;10.074;2022-11-11T04:03:29;20.00;;;6.95;;
18503;SDS011;9381;54.244;10.074;2022-11-11T04:08:47;19.57;;;7.00;;
18503;SDS011;9381;54.244;10.074;2022-11-11T04:14:07;22.40;;;8.10;;
18503;SDS011;9381;54.244;10.074;2022-11-11T04:19:28;18.67;;;7.63;;
18503;SDS011;9381;54.244;10.074;2022-11-11T04:24:47;18.87;;;8.20;;
18503;SDS011;9381;54.244;10.074;2022-11-11T04:30:06;12.77;;;8.67;;
18503;SDS011;9381;54.244;10.074;2022-11-11T04:35:09;16.17;;;8.33;;
18503;SDS011;9381;54.244;10.074;2022-11-11T04:40:11;20.07;;;8.33;;
18503;SDS011;9381;54.244;10.074;2022-11-11T04:45:30;18.27;;;8.60;;
18503;SDS011;9381;54.244;10.074;2022-11-11T04:55:34;21.40;;;9.03;;
18503;SDS011;9381;54.244;10.074;2022-11-11T05:00:54;19.50;;;8.83;;
18503;SDS011;9381;54.244;10.074;2022-11-11T05:05:57;27.00;;;8.60;;
18503;SDS011;9381;54.244;10.074;2022-11-11T05:11:17;16.00;;;8.83;;
18503;SDS011;9381;54.244;10.074;2022-11-11T05:16:19;19.63;;;8.50;;
18503;SDS011;9381;54.244;10.074;2022-11-11T05:21:40;17.93;;;9.37;;
18503;SDS011;9381;54.244;10.074;2022-11-11T05:26:41;16.07;;;8.77;;
18503;SDS011;9381;54.244;10.074;2022-11-11T05:31:41;15.97;;;9.60;;
18503;SDS011;9381;54.244;10.074;2022-11-11T05:36:41;15.85;;;8.88;;
18503;SDS011;9381;54.244;10.074;2022-11-11T05:41:42;23.23;;;9.43;;
18503;SDS011;9381;54.244;10.074;2022-11-11T05:46:42;18.67;;;9.48;;
18503;SDS011;9381;54.244;10.074;2022-11-11T05:51:43;23.15;;;10.02;;
18503;SDS011;9381;54.244;10.074;2022-11-11T05:56:44;21.67;;;9.90;;
18503;SDS011;9381;54.244;10.074;2022-11-11T06:01:45;15.15;;;9.40;;
18503;SDS011;9381;54.244;10.074;2022-11-11T06:06:46;18.77;;;9.93;;
18503;SDS011;9381;54.244;10.074;2022-11-11T06:11:46;17.20;;;9.90;;
18503;SDS011;9381;54.244;10.074;2022-11-11T06:16:46;22.20;;;10.70;;
18503;SDS011;9381;54.244;10.074;2022-11-11T06:21:47;19.90;;;9.93;;
18503;SDS011;9381;54.244;10.074;2022-11-11T06:26:56;16.73;;;9.60;;
18503;SDS011;9381;54.244;10.074;2022-11-11T06:31:56;20.17;;;10.70;;
18503;SDS011;9381;54.244;10.074;2022-11-11T06:36:57;19.75;;;10.98;;
18503;SDS011;9381;54.244;10.074;2022-11-11T06:41:57;23.10;;;12.85;;
18503;SDS011;9381;54.244;10.074;2022-11-11T06:46:58;22.10;;;12.03;;
18503;SDS011;9381;54.244;10.074;2022-11-11T06:51:58;25.02;;;11.93;;
18503;SDS011;9381;54.244;10.074;2022-11-11T06:56:58;23.10;;;12.27;;
18503;SDS011;9381;54.244;10.074;2022-11-11T07:01:59;25.45;;;12.73;;
18503;SDS011;9381;54.244;10.074;2022-11-11T07:06:59;20.45;;;12.52;;
18503;SDS011;9381;54.244;10.074;2022-11-11T07:11:59;23.20;;;12.82;;
18503;SDS011;9381;54.244;10.074;2022-11-11T07:17:00;23.40;;;13.20;;
18503;SDS011;9381;54.244;10.074;2022-11-11T07:22:00;26.88;;;13.25;;
18503;SDS011;9381;54.244;10.074;2022-11-11T07:27:01;23.48;;;13.93;;
18503;SDS011;9381;54.244;10.074;2022-11-11T07:32:01;23.77;;;15.52;;
18503;SDS011;9381;54.244;10.074;2022-11-11T07:37:01;23.87;;;14.83;;
18503;SDS011;9381;54.244;10.074;2022-11-11T07:42:02;24.33;;;15.20;;
18503;SDS011;9381;54.244;10.074;2022-11-11T07:47:02;30.20;;;15.80;;
18503;SDS011;9381;54.244;10.074;2022-11-11T07:52:03;32.70;;;16.00;;
18503;SDS011;9381;54.244;10.074;2022-11-11T07:57:03;26.37;;;15.10;;
18503;SDS011;9381;54.244;10.074;2022-11-11T08:02:04;28.48;;;15.88;;
18503;SDS011;9381;54.244;10.074;2022-11-11T08:07:05;23.37;;;16.37;;
18503;SDS011;9381;54.244;10.074;2022-11-11T08:12:07;33.33;;;17.83;;
18503;SDS011;9381;54.244;10.074;2022-11-11T08:17:26;27.97;;;17.47;;
18503;SDS011;9381;54.244;10.074;2022-11-11T08:22:27;33.17;;;18.77;;
18503;SDS011;9381;54.244;10.074;2022-11-11T08:27:27;29.33;;;20.10;;
18503;SDS011;9381;54.244;10.074;2022-11-11T08:32:28;31.90;;;19.03;;
18503;SDS011;9381;54.244;10.074;2022-11-11T08:37:28;32.40;;;19.57;;
18503;SDS011;9381;54.244;10.074;2022-11-11T08:42:28;36.03;;;19.90;;
18503;SDS011;9381;54.244;10.074;2022-11-11T08:47:29;35.73;;;19.63;;
18503;SDS011;9381;54.244;10.074;2022-11-11T08:52:29;30.23;;;19.48;;
18503;SDS011;9381;54.244;10.074;2022-11-11T08:57:29;27.90;;;19.90;;
18503;SDS011;9381;54.244;10.074;2022-11-11T09:02:30;35.08;;;20.73;;
18503;SDS011;9381;54.244;10.074;2022-11-11T09:07:31;36.00;;;19.93;;
18503;SDS011;9381;54.244;10.074;2022-11-11T09:12:31;33.53;;;19.80;;
18503;SDS011;9381;54.244;10.074;2022-11-11T09:17:32;28.45;;;19.40;;
18503;SDS011;9381;54.244;10.074;2022-11-11T09:22:32;31.77;;;21.48;;
18503;SDS011;9381;54.244;10.074;2022-11-11T09:27:32;35.67;;;19.95;;
18503;SDS011;9381;54.244;10.074;2022-11-11T09:32:33;31.93;;;20.20;;
18503;SDS011;9381;54.244;10.074;2022-11-11T09:37:33;35.57;;;19.07;;
18503;SDS011;9381;54.244;10.074;2022-11-11T09:42:38;27.42;;;19.45;;
18503;SDS011;9381;54.244;10.074;2022-11-11T09:47:44;32.50;;;19.27;;
18503;SDS011;9381;54.244;10.074;2022-11-11T09:58:04;34.60;;;21.00;;
18503;SDS011;9381;54.244;10.074;2022-11-11T10:03:12;28.77;;;19.70;;
18503;SDS011;9381;54.244;10.074;2022-11-11T10:08:24;34.53;;;21.33;;
18503;SDS011;9381;54.244;10.074;2022-11-11T10:13:33;31.43;;;19.20;;
18503;SDS011;9381;54.244;10.074;2022-11-11T10:18:53;32.47;;;20.43;;
18503;SDS011;9381;54.244;10.074;2022-11-11T10:24:17;40.27;;;19.87;;
18503;SDS011;9381;54.244;10.074;2022-11-11T10:29:27;34.60;;;20.93;;
18503;SDS011;9381;54.244;10.074;2022-11-11T10:34:43;33.33;;;21.23;;
18503;SDS011;9381;54.244;10.074;2022-11-11T10:50:30;35.37;;;19.70;;
18503;SDS011;9381;54.244;10.074;2022-11-11T10:55:37;37.27;;;19.93;;
18503;SDS011;9381;54.244;10.074;2022-11-11T11:01:00;35.00;;;19.87;;
18503;SDS011;9381;54.244;10.074;2022-11-11T11:06:05;39.77;;;20.53;;
18503;SDS011;9381;54.244;10.074;2022-11-11T11:16:57;30.87;;;19.93;;
18503;SDS011;9381;54.244;10.074;2022-11-11T11:22:00;35.90;;;20.33;;
18503;SDS011;9381;54.244;10.074;2022-11-11T11:27:03;36.47;;;19.97;;
18503;SDS011;9381;54.244;10.074;2022-11-11T11:32:54;41.47;;;20.63;;
18503;SDS011;9381;54.244;10.074;2022-11-11T11:37:30;31.67;;;19.47;;
18503;SDS011;9381;54.244;10.074;2022-11-11T11:42:34;31.43;;;20.63;;
18503;SDS011;9381;54.244;10.074;2022-11-11T11:47:42;33.03;;;18.87;;
18503;SDS011;9381;54.244;10.074;2022-11-11T12:30:22;28.83;;;16.07;;
18503;SDS011;9381;54.244;10.074;2022-11-11T12:35:35;29.17;;;16.73;;
18503;SDS011;9381;54.244;10.074;2022-11-11T12:46:11;30.27;;;16.57;;
18503;SDS011;9381;54.244;10.074;2022-11-11T12:51:30;25.53;;;16.13;;
18503;SDS011;9381;54.244;10.074;2022-11-11T13:07:51;23.70;;;15.40;;
18503;SDS011;9381;54.244;10.074;2022-11-11T13:18:52;22.37;;;14.10;;
18503;SDS011;9381;54.244;10.074;2022-11-11T13:23:56;22.70;;;15.47;;
18503;SDS011;9381;54.244;10.074;2022-11-11T13:34:36;25.97;;;14.77;;
18503;SDS011;9381;54.244;10.074;2022-11-11T13:39:42;28.03;;;16.27;;
18503;SDS011;9381;54.244;10.074;2022-11-11T13:49:57;27.57;;;17.07;;
18503;SDS011;9381;54.244;10.074;2022-11-11T13:55:03;25.13;;;15.80;;
18503;SDS011;9381;54.244;10.074;2022-11-11T14:05:18;23.60;;;15.33;;
18503;SDS011;9381;54.244;10.074;2022-11-11T14:15:38;23.77;;;14.73;;
18503;SDS011;9381;54.244;10.074;2022-11-11T14:20:44;25.60;;;14.83;;
18503;SDS011;9381;54.244;10.074;2022-11-11T14:25:46;24.23;;;15.07;;
18503;SDS011;9381;54.244;10.074;2022-11-11T14:30:48;23.93;;;15.83;;
18503;SDS011;9381;54.244;10.074;2022-11-11T14:35:57;19.43;;;14.70;;
18503;SDS011;9381;54.244;10.074;2022-11-11T14:47:08;23.23;;;15.60;;
18503;SDS011;9381;54.244;10.074;2022-11-11T14:52:02;22.40;;;14.63;;
18503;SDS011;9381;54.244;10.074;2022-11-11T14:57:20;24.03;;;15.10;;
18503;SDS011;9381;54.244;10.074;2022-11-11T15:02:35;22.70;;;15.33;;
18503;SDS011;9381;54.244;10.074;2022-11-11T15:13:09;23.47;;;15.70;;
18503;SDS011;9381;54.244;10.074;2022-11-11T15:18:26;24.27;;;15.93;;
18503;SDS011;9381;54.244;10.074;2022-11-11T15:23:52;23.63;;;16.23;;
18503;SDS011;9381;54.244;10.074;2022-11-11T15:29:24;23.57;;;15.40;;
18503;SDS011;9381;54.244;10.074;2022-11-11T15:34:44;24.27;;;16.03;;
18503;SDS011;9381;54.244;10.074;2022-11-11T15:39:57;23.97;;;16.23;;
18503;SDS011;9381;54.244;10.074;2022-11-11T15:44:58;29.87;;;16.53;;
18503;SDS011;9381;54.244;10.074;2022-11-11T15:50:00;24.20;;;15.77;;
18503;SDS011;9381;54.244;10.074;2022-11-11T15:55:01;26.67;;;16.93;;
18503;SDS011;9381;54.244;10.074;2022-11-11T16:05:26;30.93;;;17.90;;
18503;SDS011;9381;54.244;10.074;2022-11-11T16:10:31;26.70;;;17.50;;
18503;SDS011;9381;54.244;10.074;2022-11-11T16:20:49;27.20;;;17.87;;
18503;SDS011;9381;54.244;10.074;2022-11-11T16:25:55;28.33;;;17.33;;
18503;SDS011;9381;54.244;10.074;2022-11-11T16:30:58;28.17;;;19.20;;
18503;SDS011;9381;54.244;10.074;2022-11-11T16:36:08;27.20;;;17.10;;
18503;SDS011;9381;54.244;10.074;2022-11-11T16:41:29;31.87;;;17.47;;
18503;SDS011;9381;54.244;10.074;2022-11-11T16:51:37;30.37;;;18.43;;
18503;SDS011;9381;54.244;10.074;2022-11-11T16:56:43;26.63;;;18.33;;
18503;SDS011;9381;54.244;10.074;2022-11-11T17:01:47;35.87;;;18.57;;
18503;SDS011;9381;54.244;10.074;2022-11-11T17:06:49;28.57;;;18.17;;
18503;SDS011;9381;54.244;10.074;2022-11-11T17:11:49;36.20;;;19.93;;
18503;SDS011;9381;54.244;10.074;2022-11-11T17:16:50;28.30;;;18.43;;
18503;SDS011;9381;54.244;10.074;2022-11-11T17:21:51;31.53;;;19.20;;
18503;SDS011;9381;54.244;10.074;2022-11-11T17:26:53;29.80;;;19.58;;
18503;SDS011;9381;54.244;10.074;2022-11-11T17:31:54;28.63;;;17.87;;
18503;SDS011;9381;54.244;10.074;2022-11-11T17:36:54;27.13;;;17.30;;
18503;SDS011;9381;54.244;10.074;2022-11-11T17:41:54;29.40;;;17.50;;
18503;SDS011;9381;54.244;10.074;2022-11-11T17:46:55;25.83;;;17.27;;
18503;SDS011;9381;54.244;10.074;2022-11-11T17:51:55;24.87;;;17.83;;
18503;SDS011;9381;54.244;10.074;2022-11-11T17:56:56;25.77;;;15.77;;
18503;SDS011;9381;54.244;10.074;2022-11-11T18:01:56;24.20;;;16.03;;
18503;SDS011;9381;54.244;10.074;2022-11-11T18:06:56;23.03;;;15.33;;
18503;SDS011;9381;54.244;10.074;2022-11-11T18:11:57;21.33;;;14.53;;
18503;SDS011;9381;54.244;10.074;2022-11-11T18:16:57;24.73;;;15.67;;
18503;SDS011;9381;54.244;10.074;2022-11-11T18:21:57;21.53;;;15.03;;
18503;SDS011;9381;54.244;10.074;2022-11-11T18:26:58;22.75;;;14.68;;
18503;SDS011;9381;54.244;10.074;2022-11-11T18:31:58;23.25;;;14.13;;
18503;SDS011;9381;54.244;10.074;2022-11-11T18:36:58;21.20;;;14.10;;
18503;SDS011;9381;54.244;10.074;2022-11-11T18:41:59;21.05;;;13.50;;
18503;SDS011;9381;54.244;10.074;2022-11-11T18:46:59;18.27;;;13.68;;
18503;SDS011;9381;54.244;10.074;2022-11-11T18:51:59;19.77;;;13.20;;
18503;SDS011;9381;54.244;10.074;2022-11-11T18:57:00;22.40;;;12.67;;
18503;SDS011;9381;54.244;10.074;2022-11-11T19:02:00;17.87;;;12.40;;
18503;SDS011;9381;54.244;10.074;2022-11-11T19:07:01;20.30;;;13.27;;
18503;SDS011;9381;54.244;10.074;2022-11-11T19:12:01;18.67;;;13.87;;
18503;SDS011;9381;54.244;10.074;2022-11-11T19:17:01;21.13;;;16.00;;
18503;SDS011;9381;54.244;10.074;2022-11-11T19:22:02;16.07;;;11.80;;
18503;SDS011;9381;54.244;10.074;2022-11-11T19:27:02;22.57;;;12.33;;
18503;SDS011;9381;54.244;10.074;2022-11-11T19:32:03;18.10;;;12.80;;
18503;SDS011;9381;54.244;10.074;2022-11-11T19:37:03;23.77;;;12.67;;
18503;SDS011;9381;54.244;10.074;2022-11-11T19:42:08;16.67;;;10.30;;
18503;SDS011;9381;54.244;10.074;2022-11-11T19:47:09;17.13;;;11.33;;
18503;SDS011;9381;54.244;10.074;2022-11-11T19:52:09;16.43;;;11.67;;
18503;SDS011;9381;54.244;10.074;2022-11-11T19:57:09;19.67;;;11.60;;
18503;SDS011;9381;54.244;10.074;2022-11-11T20:02:10;16.05;;;11.57;;
18503;SDS011;9381;54.244;10.074;2022-11-11T20:07:10;17.50;;;11.93;;
18503;SDS011;9381;54.244;10.074;2022-11-11T20:12:10;18.83;;;12.27;;
18503;SDS011;9381;54.244;10.074;2022-11-11T20:17:11;17.33;;;11.60;;
18503;SDS011;9381;54.244;10.074;2022-11-11T20:22:11;16.70;;;11.40;;
18503;SDS011;9381;54.244;10.074;2022-11-11T20:27:12;16.23;;;11.00;;
18503;SDS011;9381;54.244;10.074;2022-11-11T20:32:12;18.63;;;11.87;;
18503;SDS011;9381;54.244;10.074;2022-11-11T20:37:12;18.83;;;11.25;;
18503;SDS011;9381;54.244;10.074;2022-11-11T20:42:13;16.20;;;10.87;;
18503;SDS011;9381;54.244;10.074;2022-11-11T20:47:13;19.97;;;10.97;;
18503;SDS011;9381;54.244;10.074;2022-11-11T20:52:14;17.77;;;11.87;;
18503;SDS011;9381;54.244;10.074;2022-11-11T20:57:14;16.55;;;11.75;;
18503;SDS011;9381;54.244;10.074;2022-11-11T21:02:15;19.47;;;11.83;;
18503;SDS011;9381;54.244;10.074;2022-11-11T21:07:15;20.83;;;12.17;;
18503;SDS011;9381;54.244;10.074;2022-11-11T21:12:16;18.40;;;12.07;;
18503;SDS011;9381;54.244;10.074;2022-11-11T21:17:17;20.90;;;12.37;;
18503;SDS011;9381;54.244;10.074;2022-11-11T21:22:17;18.87;;;11.80;;
18503;SDS011;9381;54.244;10.074;2022-11-11T21:27:17;21.13;;;12.33;;
18503;SDS011;9381;54.244;10.074;2022-11-11T21:32:18;29.92;;;19.90;;
18503;SDS011;9381;54.244;10.074;2022-11-11T21:37:18;21.90;;;12.80;;
18503;SDS011;9381;54.244;10.074;2022-11-11T21:42:18;21.50;;;13.20;;
18503;SDS011;9381;54.244;10.074;2022-11-11T21:47:19;21.93;;;13.37;;
18503;SDS011;9381;54.244;10.074;2022-11-11T21:52:19;21.20;;;13.67;;
18503;SDS011;9381;54.244;10.074;2022-11-11T21:57:19;20.93;;;13.57;;
18503;SDS011;9381;54.244;10.074;2022-11-11T22:02:20;21.10;;;13.93;;
18503;SDS011;9381;54.244;10.074;2022-11-11T22:07:20;21.83;;;13.70;;
18503;SDS011;9381;54.244;10.074;2022-11-11T22:12:21;26.27;;;13.33;;
18503;SDS011;9381;54.244;10.074;2022-11-11T22:17:21;21.98;;;13.90;;
18503;SDS011;9381;54.244;10.074;2022-11-11T22:22:21;23.45;;;14.60;;
18503;SDS011;9381;54.244;10.074;2022-11-11T22:27:22;21.90;;;13.55;;
18503;SDS011;9381;54.244;10.074;2022-11-11T22:32:22;18.97;;;12.63;;
18503;SDS011;9381;54.244;10.074;2022-11-11T22:37:22;21.08;;;13.23;;
18503;SDS011;9381;54.244;10.074;2022-11-11T22:42:22;22.20;;;13.70;;
18503;SDS011;9381;54.244;10.074;2022-11-11T22:47:23;22.07;;;13.43;;
18503;SDS011;9381;54.244;10.074;2022-11-11T22:52:23;21.77;;;13.20;;
18503;SDS011;9381;54.244;10.074;2022-11-11T22:57:24;22.57;;;14.10;;
18503;SDS011;9381;54.244;10.074;2022-11-11T23:02:29;22.47;;;13.40;;
18503;SDS011;9381;54.244;10.074;2022-11-11T23:07:30;19.90;;;13.70;;
18503;SDS011;9381;54.244;10.074;2022-11-11T23:12:30;21.97;;;13.60;;
18503;SDS011;9381;54.244;10.074;2022-11-11T23:17:30;23.53;;;14.03;;
18503;SDS011;9381;54.244;10.074;2022-11-11T23:22:31;26.20;;;15.23;;
18503;SDS011;9381;54.244;10.074;2022-11-11T23:27:31;23.20;;;13.93;;
18503;SDS011;9381;54.244;10.074;2022-11-11T23:32:31;20.40;;;14.65;;
18503;SDS011;9381;54.244;10.074;2022-11-11T23:37:32;23.10;;;14.97;;
18503;SDS011;9381;54.244;10.074;2022-11-11T23:42:32;26.13;;;14.57;;
18503;SDS011;9381;54.244;10.074;2022-11-11T23:47:32;24.37;;;15.07;;
18503;SDS011;9381;54.244;10.074;2022-11-11T23:52:33;22.42;;;14.60;;
18503;SDS011;9381;54.244;10.074;2022-11-11T23:57:33;30.37;;;15.80;;
